createdAt,value
2019-03-16T00:00:31.184Z,97732.11
2019-03-16T00:05:34.185Z,97713.68
2019-03-16T00:10:37.715Z,97696.31
2019-03-16T00:15:41.003Z,97682.88
2019-03-16T00:20:44.101Z,97644.24
2019-03-16T00:25:47.404Z,97698.27
2019-03-16T00:30:50.526Z,97647.28
2019-03-16T00:35:53.632Z,97612.38
2019-03-16T00:40:56.883Z,97635.80
2019-03-16T00:46:00.009Z,97617.80
2019-03-16T00:51:03.339Z,97613.96
2019-03-16T00:56:06.498Z,97595.98
2019-03-16T01:01:09.715Z,97606.40
2019-03-16T01:06:12.861Z,97622.92
2019-03-16T01:11:15.829Z,97627.21
2019-03-16T01:16:18.953Z,97621.41
2019-03-16T01:21:22.027Z,97665.30
2019-03-16T01:26:25.155Z,97654.95
2019-03-16T01:31:28.144Z,97668.79
2019-03-16T01:36:31.281Z,97667.86
2019-03-16T01:41:34.366Z,97688.97
2019-03-16T01:46:37.597Z,97704.09
2019-03-16T01:51:40.730Z,97695.03
2019-03-16T01:56:43.694Z,97683.47
2019-03-16T02:01:49.298Z,97684.09
2019-03-16T02:06:52.084Z,97704.48
2019-03-16T02:11:55.198Z,97707.59
2019-03-16T02:16:58.174Z,97716.53
2019-03-16T02:22:01.398Z,97729.89
2019-03-16T02:27:04.471Z,97721.83
2019-03-16T02:32:07.921Z,97727.05
2019-03-16T02:37:10.953Z,97731.34
2019-03-16T02:42:14.033Z,97715.41
2019-03-16T02:47:17.291Z,97709.42
2019-03-16T02:52:20.463Z,97707.25
2019-03-16T02:57:23.935Z,97732.59
2019-03-16T03:02:27.394Z,97728.12
2019-03-16T03:07:30.575Z,97719.05
2019-03-16T03:12:33.557Z,97737.97
2019-03-16T03:17:36.890Z,97748.15
2019-03-16T03:22:40.334Z,97755.83
2019-03-16T03:27:43.644Z,97749.87
2019-03-16T03:32:46.644Z,97778.95
2019-03-16T03:37:49.976Z,97808.78
2019-03-16T03:42:53.168Z,97807.30
2019-03-16T03:47:56.393Z,97824.53
2019-03-16T03:52:59.686Z,97821.58
2019-03-16T03:58:03.015Z,97837.64
2019-03-16T04:03:06.698Z,97844.53
2019-03-16T04:08:09.660Z,97845.92
2019-03-16T04:13:12.987Z,97855.36
2019-03-16T04:18:16.094Z,97854.11
2019-03-16T04:23:19.166Z,97856.37
2019-03-16T04:28:22.278Z,97856.23
2019-03-16T04:33:25.938Z,97877.97
2019-03-16T04:38:28.914Z,97888.77
2019-03-16T04:43:31.919Z,97878.47
2019-03-16T04:48:35.147Z,97890.16
2019-03-16T04:53:38.356Z,97899.65
2019-03-16T04:58:41.365Z,97905.66
2019-03-16T05:03:44.352Z,97907.27
2019-03-16T05:08:47.695Z,97926.98
2019-03-16T05:13:50.776Z,97939.47
2019-03-16T05:18:54.049Z,97945.48
2019-03-16T05:23:57.300Z,97952.63
2019-03-16T05:29:00.617Z,97959.81
2019-03-16T05:34:03.721Z,97965.02
2019-03-16T05:39:07.513Z,97933.41
2019-03-16T05:44:10.743Z,97984.80
2019-03-16T05:49:13.739Z,97983.52
2019-03-16T05:54:16.696Z,98002.63
2019-03-16T05:59:20.103Z,97997.89
2019-03-16T06:04:23.513Z,98019.68
2019-03-16T06:09:26.714Z,98022.59
2019-03-16T06:14:29.798Z,98042.89
2019-03-16T06:19:33.032Z,98043.92
2019-03-16T06:24:35.993Z,98039.93
2019-03-16T06:29:39.230Z,98053.47
2019-03-16T06:34:42.434Z,98067.14
2019-03-16T06:39:45.540Z,98072.34
2019-03-16T06:44:48.873Z,98073.20
2019-03-16T06:49:52.333Z,98087.73
2019-03-16T06:54:55.478Z,98094.78
2019-03-16T06:59:58.641Z,98117.28
2019-03-16T07:05:01.794Z,98127.58
2019-03-16T07:10:05.583Z,98134.77
2019-03-16T07:15:08.789Z,98149.69
2019-03-16T07:20:12.322Z,98168.16
2019-03-16T07:25:15.432Z,98155.27
2019-03-16T07:30:18.604Z,98166.84
2019-03-16T07:35:21.856Z,98187.15
2019-03-16T07:40:27.923Z,98201.48
2019-03-16T07:45:31.076Z,98204.76
2019-03-16T07:50:34.427Z,98219.03
2019-03-16T07:55:37.998Z,98224.56
2019-03-16T08:00:41.207Z,98222.53
2019-03-16T08:05:44.318Z,98241.63
2019-03-16T08:10:47.327Z,98240.48
2019-03-16T08:15:50.648Z,98266.56
2019-03-16T08:20:53.853Z,98290.80
2019-03-16T08:25:56.877Z,98281.00
2019-03-16T08:31:00.130Z,98287.10
2019-03-16T08:36:03.393Z,98284.32
2019-03-16T08:41:06.687Z,98300.26
2019-03-16T08:46:10.105Z,98294.38
2019-03-16T08:51:13.120Z,98324.56
2019-03-16T08:56:16.196Z,98323.36
2019-03-16T09:01:19.243Z,98309.28
2019-03-16T09:06:22.557Z,98342.48
2019-03-16T09:11:25.565Z,98340.39
2019-03-16T09:16:28.581Z,98350.06
2019-03-16T09:21:31.542Z,98364.67
2019-03-16T09:26:35.069Z,98363.30
2019-03-16T09:31:38.223Z,98366.42
2019-03-16T09:36:41.380Z,98353.67
2019-03-16T09:41:44.679Z,98369.43
2019-03-16T09:46:47.688Z,98388.41
2019-03-16T09:51:50.884Z,98394.61
2019-03-16T09:57:00.996Z,98406.34
2019-03-16T10:01:58.891Z,98403.13
2019-03-16T10:07:02.460Z,98407.02
2019-03-16T10:12:05.494Z,98428.17
2019-03-16T10:17:08.668Z,98432.88
2019-03-16T10:22:11.817Z,98433.39
2019-03-16T10:27:15.401Z,98442.91
2019-03-16T10:32:18.523Z,98463.47
2019-03-16T10:37:21.926Z,98460.56
2019-03-16T10:42:25.175Z,98473.53
2019-03-16T10:47:28.469Z,98472.45
2019-03-16T10:52:31.478Z,98465.84
2019-03-16T10:57:35.066Z,98473.48
2019-03-16T11:02:38.330Z,98476.17
2019-03-16T11:07:41.823Z,98461.47
2019-03-16T11:12:44.905Z,98479.44
2019-03-16T11:17:48.118Z,98491.28
2019-03-16T11:22:51.173Z,98486.98
2019-03-16T11:27:54.177Z,98495.95
2019-03-16T11:32:57.204Z,98482.41
2019-03-16T11:38:00.190Z,98466.42
2019-03-16T11:43:03.564Z,98484.97
2019-03-16T11:48:06.644Z,98480.67
2019-03-16T11:53:09.830Z,98466.69
2019-03-16T11:58:13.070Z,98473.00
2019-03-16T12:03:16.180Z,98477.61
2019-03-16T12:08:19.348Z,98466.89
2019-03-16T12:13:22.549Z,98452.55
2019-03-16T12:18:25.775Z,98472.72
2019-03-16T12:23:28.861Z,98463.11
2019-03-16T12:28:32.143Z,98463.70
2019-03-16T12:33:35.293Z,98465.89
2019-03-16T12:38:38.652Z,98463.49
2019-03-16T12:43:41.727Z,98479.33
2019-03-16T12:48:45.053Z,98484.20
2019-03-16T12:53:48.534Z,98490.47
2019-03-16T12:58:51.594Z,98508.54
2019-03-16T13:03:54.680Z,98518.77
2019-03-16T13:08:57.608Z,98519.77
2019-03-16T13:14:00.800Z,98515.81
2019-03-16T13:19:03.755Z,98514.77
2019-03-16T13:24:06.742Z,98503.80
2019-03-16T13:29:09.940Z,98518.20
2019-03-16T13:34:12.938Z,98514.65
2019-03-16T13:39:16.004Z,98516.05
2019-03-16T13:44:19.494Z,98523.73
2019-03-16T13:49:22.535Z,98517.45
2019-03-16T13:54:25.734Z,98515.33
2019-03-16T13:59:29.128Z,98533.95
2019-03-16T14:04:32.583Z,98539.27
2019-03-16T14:09:35.783Z,98537.59
2019-03-16T14:14:39.312Z,98538.92
2019-03-16T14:19:42.582Z,98530.63
2019-03-16T14:24:45.891Z,98549.89
2019-03-16T14:29:49.907Z,98533.42
2019-03-16T14:34:53.137Z,98528.27
2019-03-16T14:39:56.642Z,98522.56
2019-03-16T14:44:59.691Z,98528.93
2019-03-16T14:50:03.520Z,98521.65
2019-03-16T14:55:06.930Z,98528.45
2019-03-16T15:00:12.186Z,98525.14
2019-03-16T15:05:15.365Z,98534.67
2019-03-16T15:10:18.602Z,98550.02
2019-03-16T15:15:21.807Z,98545.45
2019-03-16T15:20:25.034Z,98552.57
2019-03-16T15:25:28.345Z,98566.19
2019-03-16T15:30:31.646Z,98572.62
2019-03-16T15:35:35.036Z,98565.49
2019-03-16T15:40:38.497Z,98563.53
2019-03-16T15:45:41.702Z,98555.67
2019-03-16T15:50:45.227Z,98562.75
2019-03-16T15:55:48.432Z,98568.79
2019-03-16T16:01:03.160Z,98561.05
2019-03-16T16:05:57.725Z,98553.29
2019-03-16T16:11:01.565Z,98557.20
2019-03-16T16:16:05.058Z,98564.96
2019-03-16T16:21:08.293Z,98578.11
2019-03-16T16:26:11.319Z,98594.41
2019-03-16T16:31:16.630Z,98586.58
2019-03-16T16:36:19.584Z,98600.04
2019-03-16T16:41:25.451Z,98599.75
2019-03-16T16:46:28.162Z,98605.73
2019-03-16T16:51:31.478Z,98606.71
2019-03-16T16:56:34.638Z,98618.30
2019-03-16T17:01:37.725Z,98629.95
2019-03-16T17:06:41.149Z,98631.44
2019-03-16T17:11:44.466Z,98639.13
2019-03-16T17:16:47.870Z,98642.92
2019-03-16T17:21:51.030Z,98636.66
2019-03-16T17:26:54.101Z,98648.59
2019-03-16T17:31:57.498Z,98650.48
2019-03-16T17:37:00.492Z,98651.39
2019-03-16T17:42:03.817Z,98644.51
2019-03-16T17:47:07.047Z,98647.44
2019-03-16T17:52:10.142Z,98655.56
2019-03-16T17:57:13.145Z,98670.70
2019-03-16T18:02:16.365Z,98666.55
2019-03-16T18:07:19.364Z,98664.78
2019-03-16T18:12:22.548Z,98665.16
2019-03-16T18:17:25.621Z,98675.30
2019-03-16T18:22:28.600Z,98670.41
2019-03-16T18:27:31.669Z,98670.32
2019-03-16T18:32:34.925Z,98671.24
2019-03-16T18:37:38.130Z,98673.66
2019-03-16T18:42:41.186Z,98681.83
2019-03-16T18:47:44.575Z,98685.84
2019-03-16T18:52:48.059Z,98685.59
2019-03-16T18:57:51.592Z,98671.41
2019-03-16T19:02:54.642Z,98669.11
2019-03-16T19:07:57.712Z,98671.38
2019-03-16T19:13:00.902Z,98673.38
2019-03-16T19:18:04.318Z,98674.70
2019-03-16T19:23:07.627Z,98668.48
2019-03-16T19:28:10.840Z,98658.94
2019-03-16T19:33:14.070Z,98675.84
2019-03-16T19:38:17.136Z,98676.70
2019-03-16T19:43:21.261Z,98689.89
2019-03-16T19:48:24.277Z,98672.42
2019-03-16T19:53:27.716Z,98671.00
2019-03-16T19:58:30.842Z,98670.26
2019-03-16T20:03:33.889Z,98668.68
2019-03-16T20:08:37.028Z,98671.61
2019-03-16T20:13:40.045Z,98664.91
2019-03-16T20:18:43.132Z,98664.23
2019-03-16T20:23:46.283Z,98667.48
2019-03-16T20:28:49.400Z,98667.96
2019-03-16T20:33:52.639Z,98667.45
2019-03-16T20:38:55.661Z,98666.14
2019-03-16T20:43:58.902Z,98663.31
2019-03-16T20:49:01.963Z,98659.80
2019-03-16T20:54:06.165Z,98663.61
2019-03-16T20:59:09.684Z,98665.65
2019-03-16T21:04:12.673Z,98663.51
2019-03-16T21:09:15.972Z,98673.46
2019-03-16T21:14:19.085Z,98677.81
2019-03-16T21:19:22.668Z,98673.02
2019-03-16T21:24:25.864Z,98671.87
2019-03-16T21:29:29.122Z,98662.48
2019-03-16T21:34:33.460Z,98667.69
2019-03-16T21:39:36.868Z,98662.48
2019-03-16T21:44:40.752Z,98661.16
2019-03-16T21:49:43.898Z,98654.92
2019-03-16T21:54:47.008Z,98650.89
2019-03-16T21:59:50.118Z,98663.12
2019-03-16T22:04:53.236Z,98664.19
2019-03-16T22:09:56.604Z,98658.79
2019-03-16T22:14:59.696Z,98656.92
2019-03-16T22:20:02.965Z,98658.53
2019-03-16T22:25:06.275Z,98659.26
2019-03-16T22:30:09.912Z,98648.00
2019-03-16T22:35:13.217Z,98655.39
2019-03-16T22:40:16.283Z,98663.47
2019-03-16T22:45:19.695Z,98659.33
2019-03-16T22:50:22.803Z,98654.29
2019-03-16T22:55:26.156Z,98664.01
2019-03-16T23:00:42.610Z,98662.98
2019-03-16T23:05:45.572Z,98665.46
2019-03-16T23:10:49.059Z,98658.89
2019-03-16T23:15:52.400Z,98648.61
2019-03-16T23:20:55.997Z,98649.93
2019-03-16T23:25:59.313Z,98650.17
2019-03-16T23:31:03.280Z,98638.42
2019-03-16T23:36:06.568Z,98642.28
2019-03-16T23:41:09.538Z,98636.43
2019-03-16T23:46:12.795Z,98639.70
2019-03-16T23:51:15.883Z,98633.23
2019-03-16T23:56:19.016Z,98634.39
